sensor_id;sensor_type;location;lat;lon;timestamp;P1;P2;P0
73546;PMS7003;61807;48.384;-4.386;2023-02-15T00:01:48;15.25;12.00;8.25
73546;PMS7003;61807;48.384;-4.386;2023-02-15T00:04:15;16.75;12.75;9.25
73546;PMS7003;61807;48.384;-4.386;2023-02-15T00:06:42;12.00;11.50;7.25
73546;PMS7003;61807;48.384;-4.386;2023-02-15T00:09:08;15.75;14.75;10.25
73546;PMS7003;61807;48.384;-4.386;2023-02-15T00:11:34;23.25;15.00;9.00
73546;PMS7003;61807;48.384;-4.386;2023-02-15T00:14:09;19.50;14.00;10.50
73546;PMS7003;61807;48.384;-4.386;2023-02-15T00:16:40;17.25;15.00;11.00
73546;PMS7003;61807;48.384;-4.386;2023-02-15T00:19:06;15.50;14.25;10.00
73546;PMS7003;61807;48.384;-4.386;2023-02-15T00:21:33;14.25;14.00;9.75
73546;PMS7003;61807;48.384;-4.386;2023-02-15T00:24:00;16.00;14.00;10.00
73546;PMS7003;61807;48.384;-4.386;2023-02-15T00:26:27;14.75;13.25;7.75
73546;PMS7003;61807;48.384;-4.386;2023-02-15T00:28:53;15.75;14.75;9.25
73546;PMS7003;61807;48.384;-4.386;2023-02-15T00:31:19;14.50;14.50;9.50
73546;PMS7003;61807;48.384;-4.386;2023-02-15T00:33:45;17.75;14.00;10.00
73546;PMS7003;61807;48.384;-4.386;2023-02-15T00:36:10;22.25;14.50;10.25
73546;PMS7003;61807;48.384;-4.386;2023-02-15T00:38:36;22.50;19.25;12.25
73546;PMS7003;61807;48.384;-4.386;2023-02-15T00:41:03;19.00;15.50;10.25
73546;PMS7003;61807;48.384;-4.386;2023-02-15T00:43:30;13.25;10.25;4.50
73546;PMS7003;61807;48.384;-4.386;2023-02-15T00:45:56;15.00;14.00;10.00
73546;PMS7003;61807;48.384;-4.386;2023-02-15T00:48:23;22.00;15.00;11.00
73546;PMS7003;61807;48.384;-4.386;2023-02-15T00:50:49;17.75;14.50;10.00
73546;PMS7003;61807;48.384;-4.386;2023-02-15T00:53:20;22.50;17.75;11.00
73546;PMS7003;61807;48.384;-4.386;2023-02-15T00:55:45;22.00;16.50;11.50
73546;PMS7003;61807;48.384;-4.386;2023-02-15T00:58:11;24.75;18.50;10.75
73546;PMS7003;61807;48.384;-4.386;2023-02-15T01:00:37;25.00;17.25;10.25
73546;PMS7003;61807;48.384;-4.386;2023-02-15T01:03:04;19.25;13.75;9.00
73546;PMS7003;61807;48.384;-4.386;2023-02-15T01:05:29;21.50;18.50;11.00
73546;PMS7003;61807;48.384;-4.386;2023-02-15T01:07:56;25.50;18.00;11.25
73546;PMS7003;61807;48.384;-4.386;2023-02-15T01:10:21;24.50;18.75;11.75
73546;PMS7003;61807;48.384;-4.386;2023-02-15T01:12:47;18.25;14.00;10.50
73546;PMS7003;61807;48.384;-4.386;2023-02-15T01:15:13;16.25;13.00;10.25
73546;PMS7003;61807;48.384;-4.386;2023-02-15T01:17:38;13.75;11.25;8.25
73546;PMS7003;61807;48.384;-4.386;2023-02-15T01:20:04;20.50;14.00;10.00
73546;PMS7003;61807;48.384;-4.386;2023-02-15T01:22:31;12.50;12.00;8.00
73546;PMS7003;61807;48.384;-4.386;2023-02-15T01:24:57;15.75;15.50;11.00
73546;PMS7003;61807;48.384;-4.386;2023-02-15T01:27:22;18.50;13.25;10.50
73546;PMS7003;61807;48.384;-4.386;2023-02-15T01:29:47;25.75;20.50;12.25
73546;PMS7003;61807;48.384;-4.386;2023-02-15T01:32:13;18.00;14.50;10.50
73546;PMS7003;61807;48.384;-4.386;2023-02-15T01:34:38;21.25;18.00;11.50
73546;PMS7003;61807;48.384;-4.386;2023-02-15T01:37:04;20.00;14.25;10.00
73546;PMS7003;61807;48.384;-4.386;2023-02-15T01:39:29;16.75;16.75;10.00
73546;PMS7003;61807;48.384;-4.386;2023-02-15T01:41:54;20.25;18.25;12.00
73546;PMS7003;61807;48.384;-4.386;2023-02-15T01:47:11;20.25;17.50;11.75
73546;PMS7003;61807;48.384;-4.386;2023-02-15T01:49:40;21.25;17.50;11.75
73546;PMS7003;61807;48.384;-4.386;2023-02-15T01:52:08;24.25;17.75;10.75
73546;PMS7003;61807;48.384;-4.386;2023-02-15T01:54:35;17.25;13.50;9.25
73546;PMS7003;61807;48.384;-4.386;2023-02-15T01:57:12;18.25;15.25;10.75
73546;PMS7003;61807;48.384;-4.386;2023-02-15T01:59:41;25.25;19.00;12.00
73546;PMS7003;61807;48.384;-4.386;2023-02-15T02:02:11;23.00;17.00;12.00
73546;PMS7003;61807;48.384;-4.386;2023-02-15T02:04:41;22.25;20.75;12.75
73546;PMS7003;61807;48.384;-4.386;2023-02-15T02:07:14;29.75;18.25;12.00
73546;PMS7003;61807;48.384;-4.386;2023-02-15T02:09:44;27.25;17.00;11.25
73546;PMS7003;61807;48.384;-4.386;2023-02-15T02:12:10;22.75;17.25;12.00
73546;PMS7003;61807;48.384;-4.386;2023-02-15T02:14:37;27.00;21.75;13.00
73546;PMS7003;61807;48.384;-4.386;2023-02-15T02:17:10;21.25;20.00;13.00
73546;PMS7003;61807;48.384;-4.386;2023-02-15T02:31:27;21.75;19.25;12.00
73546;PMS7003;61807;48.384;-4.386;2023-02-15T02:41:55;25.00;22.75;12.00
73546;PMS7003;61807;48.384;-4.386;2023-02-15T02:49:59;24.00;22.25;13.75
73546;PMS7003;61807;48.384;-4.386;2023-02-15T03:00:30;28.75;23.50;14.00
73546;PMS7003;61807;48.384;-4.386;2023-02-15T03:03:00;28.25;23.00;12.50
73546;PMS7003;61807;48.384;-4.386;2023-02-15T03:05:30;29.00;20.25;13.00
73546;PMS7003;61807;48.384;-4.386;2023-02-15T03:07:58;23.25;20.75;13.00
73546;PMS7003;61807;48.384;-4.386;2023-02-15T03:10:31;34.50;27.50;16.25
73546;PMS7003;61807;48.384;-4.386;2023-02-15T03:12:58;27.25;21.50;14.00
73546;PMS7003;61807;48.384;-4.386;2023-02-15T03:15:26;31.50;21.50;13.75
73546;PMS7003;61807;48.384;-4.386;2023-02-15T03:18:20;27.75;23.00;13.25
73546;PMS7003;61807;48.384;-4.386;2023-02-15T03:20:50;25.50;23.25;15.00
73546;PMS7003;61807;48.384;-4.386;2023-02-15T03:23:19;31.00;24.25;15.00
73546;PMS7003;61807;48.384;-4.386;2023-02-15T03:25:49;33.75;28.50;15.00
73546;PMS7003;61807;48.384;-4.386;2023-02-15T03:28:19;31.25;28.75;15.00
73546;PMS7003;61807;48.384;-4.386;2023-02-15T03:30:51;38.50;30.50;16.25
73546;PMS7003;61807;48.384;-4.386;2023-02-15T03:33:20;38.00;30.50;16.75
73546;PMS7003;61807;48.384;-4.386;2023-02-15T03:38:59;31.50;22.00;13.75
73546;PMS7003;61807;48.384;-4.386;2023-02-15T03:41:33;27.50;22.25;15.00
73546;PMS7003;61807;48.384;-4.386;2023-02-15T03:44:05;32.25;26.50;17.50
73546;PMS7003;61807;48.384;-4.386;2023-02-15T03:46:40;36.00;25.50;15.00
73546;PMS7003;61807;48.384;-4.386;2023-02-15T03:49:12;31.00;23.50;16.00
73546;PMS7003;61807;48.384;-4.386;2023-02-15T03:51:44;35.25;29.75;15.75
73546;PMS7003;61807;48.384;-4.386;2023-02-15T03:54:14;31.25;27.50;16.75
73546;PMS7003;61807;48.384;-4.386;2023-02-15T03:57:03;33.75;29.75;18.00
73546;PMS7003;61807;48.384;-4.386;2023-02-15T03:59:47;33.25;27.00;14.00
73546;PMS7003;61807;48.384;-4.386;2023-02-15T04:02:37;34.25;29.25;17.00
73546;PMS7003;61807;48.384;-4.386;2023-02-15T04:05:07;28.50;23.00;16.00
73546;PMS7003;61807;48.384;-4.386;2023-02-15T04:07:33;29.50;25.00;15.25
73546;PMS7003;61807;48.384;-4.386;2023-02-15T04:09:58;33.50;28.00;14.75
73546;PMS7003;61807;48.384;-4.386;2023-02-15T04:12:42;32.50;24.25;15.75
73546;PMS7003;61807;48.384;-4.386;2023-02-15T04:15:11;30.00;26.25;16.00
73546;PMS7003;61807;48.384;-4.386;2023-02-15T04:17:55;28.75;26.25;16.00
73546;PMS7003;61807;48.384;-4.386;2023-02-15T04:20:21;35.75;26.75;14.00
73546;PMS7003;61807;48.384;-4.386;2023-02-15T04:23:07;25.25;24.75;13.00
73546;PMS7003;61807;48.384;-4.386;2023-02-15T04:25:51;35.25;25.75;17.00
73546;PMS7003;61807;48.384;-4.386;2023-02-15T04:28:17;30.00;26.50;17.50
73546;PMS7003;61807;48.384;-4.386;2023-02-15T04:30:42;32.00;25.75;13.00
73546;PMS7003;61807;48.384;-4.386;2023-02-15T04:33:08;32.00;23.75;14.25
73546;PMS7003;61807;48.384;-4.386;2023-02-15T04:35:33;15.75;15.75;14.50
73546;PMS7003;61807;48.384;-4.386;2023-02-15T04:37:58;38.25;29.75;17.00
73546;PMS7003;61807;48.384;-4.386;2023-02-15T04:40:25;35.50;26.25;15.25
73546;PMS7003;61807;48.384;-4.386;2023-02-15T04:42:50;33.00;28.00;16.50
73546;PMS7003;61807;48.384;-4.386;2023-02-15T04:45:16;29.00;27.00;16.00
73546;PMS7003;61807;48.384;-4.386;2023-02-15T04:47:42;30.75;23.00;14.50
73546;PMS7003;61807;48.384;-4.386;2023-02-15T04:50:07;29.75;27.25;15.25
73546;PMS7003;61807;48.384;-4.386;2023-02-15T04:52:33;31.75;23.75;14.75
73546;PMS7003;61807;48.384;-4.386;2023-02-15T04:54:58;30.75;25.75;15.75
73546;PMS7003;61807;48.384;-4.386;2023-02-15T04:57:23;28.75;21.00;13.75
73546;PMS7003;61807;48.384;-4.386;2023-02-15T04:59:49;33.00;27.75;16.50
73546;PMS7003;61807;48.384;-4.386;2023-02-15T05:02:14;31.25;24.75;15.75
73546;PMS7003;61807;48.384;-4.386;2023-02-15T05:04:40;27.75;23.00;14.00
73546;PMS7003;61807;48.384;-4.386;2023-02-15T05:07:05;34.25;28.75;15.75
73546;PMS7003;61807;48.384;-4.386;2023-02-15T05:09:30;28.00;23.75;16.00
73546;PMS7003;61807;48.384;-4.386;2023-02-15T05:11:56;28.00;22.25;14.00
73546;PMS7003;61807;48.384;-4.386;2023-02-15T05:14:21;28.25;24.50;14.25
73546;PMS7003;61807;48.384;-4.386;2023-02-15T05:16:46;25.00;21.75;14.25
73546;PMS7003;61807;48.384;-4.386;2023-02-15T05:19:12;26.75;23.00;15.00
73546;PMS7003;61807;48.384;-4.386;2023-02-15T05:21:37;27.25;21.25;11.75
73546;PMS7003;61807;48.384;-4.386;2023-02-15T05:24:03;29.00;22.75;15.00
73546;PMS7003;61807;48.384;-4.386;2023-02-15T05:26:48;25.75;25.00;14.00
73546;PMS7003;61807;48.384;-4.386;2023-02-15T05:29:32;30.00;23.50;14.00
73546;PMS7003;61807;48.384;-4.386;2023-02-15T05:31:58;30.25;21.00;12.00
73546;PMS7003;61807;48.384;-4.386;2023-02-15T05:34:23;24.00;21.50;13.50
73546;PMS7003;61807;48.384;-4.386;2023-02-15T05:36:48;30.50;24.25;14.00
73546;PMS7003;61807;48.384;-4.386;2023-02-15T05:39:14;27.75;21.75;13.25
73546;PMS7003;61807;48.384;-4.386;2023-02-15T05:41:39;33.00;26.75;16.00
73546;PMS7003;61807;48.384;-4.386;2023-02-15T05:44:05;29.75;25.50;16.25
73546;PMS7003;61807;48.384;-4.386;2023-02-15T05:46:30;35.00;26.00;15.75
73546;PMS7003;61807;48.384;-4.386;2023-02-15T05:48:55;30.25;26.00;16.00
73546;PMS7003;61807;48.384;-4.386;2023-02-15T05:51:21;35.75;26.25;17.75
73546;PMS7003;61807;48.384;-4.386;2023-02-15T05:53:46;25.75;22.75;15.75
73546;PMS7003;61807;48.384;-4.386;2023-02-15T05:56:11;28.25;22.50;12.75
73546;PMS7003;61807;48.384;-4.386;2023-02-15T05:58:38;29.00;21.75;13.50
73546;PMS7003;61807;48.384;-4.386;2023-02-15T06:01:09;30.50;26.50;16.50
73546;PMS7003;61807;48.384;-4.386;2023-02-15T06:03:39;29.50;25.00;15.00
73546;PMS7003;61807;48.384;-4.386;2023-02-15T06:06:05;33.25;24.50;15.00
73546;PMS7003;61807;48.384;-4.386;2023-02-15T06:08:31;40.50;35.25;22.00
73546;PMS7003;61807;48.384;-4.386;2023-02-15T06:10:57;28.25;26.00;16.00
73546;PMS7003;61807;48.384;-4.386;2023-02-15T06:13:23;30.50;23.25;14.25
73546;PMS7003;61807;48.384;-4.386;2023-02-15T06:15:48;32.25;25.50;17.50
73546;PMS7003;61807;48.384;-4.386;2023-02-15T06:18:14;22.00;18.75;12.50
73546;PMS7003;61807;48.384;-4.386;2023-02-15T06:20:39;28.75;28.25;17.25
73546;PMS7003;61807;48.384;-4.386;2023-02-15T06:23:05;34.00;28.00;16.25
73546;PMS7003;61807;48.384;-4.386;2023-02-15T06:25:30;31.25;25.00;15.75
73546;PMS7003;61807;48.384;-4.386;2023-02-15T06:27:55;27.50;25.50;17.00
73546;PMS7003;61807;48.384;-4.386;2023-02-15T06:30:21;29.50;24.00;15.00
73546;PMS7003;61807;48.384;-4.386;2023-02-15T06:32:46;28.50;24.25;16.25
73546;PMS7003;61807;48.384;-4.386;2023-02-15T06:35:12;33.00;26.50;14.75
73546;PMS7003;61807;48.384;-4.386;2023-02-15T06:37:38;27.50;24.25;14.75
73546;PMS7003;61807;48.384;-4.386;2023-02-15T06:40:03;31.50;26.75;14.25
73546;PMS7003;61807;48.384;-4.386;2023-02-15T06:42:29;29.25;26.75;14.25
73546;PMS7003;61807;48.384;-4.386;2023-02-15T06:44:55;37.25;29.75;17.75
73546;PMS7003;61807;48.384;-4.386;2023-02-15T06:47:20;34.25;28.75;14.50
73546;PMS7003;61807;48.384;-4.386;2023-02-15T06:49:46;35.00;29.50;18.75
73546;PMS7003;61807;48.384;-4.386;2023-02-15T06:52:11;35.25;30.25;15.75
73546;PMS7003;61807;48.384;-4.386;2023-02-15T06:54:36;30.75;24.75;12.50
73546;PMS7003;61807;48.384;-4.386;2023-02-15T06:57:02;33.25;24.00;15.50
73546;PMS7003;61807;48.384;-4.386;2023-02-15T06:59:27;34.25;27.50;17.00
73546;PMS7003;61807;48.384;-4.386;2023-02-15T07:01:52;32.00;24.50;17.00
73546;PMS7003;61807;48.384;-4.386;2023-02-15T07:04:18;33.50;27.50;17.00
73546;PMS7003;61807;48.384;-4.386;2023-02-15T07:06:43;27.25;23.25;15.25
73546;PMS7003;61807;48.384;-4.386;2023-02-15T07:09:09;33.00;28.25;16.00
73546;PMS7003;61807;48.384;-4.386;2023-02-15T07:11:34;25.75;23.50;14.50
73546;PMS7003;61807;48.384;-4.386;2023-02-15T07:14:18;35.75;29.75;18.75
73546;PMS7003;61807;48.384;-4.386;2023-02-15T07:16:44;32.50;29.25;18.25
73546;PMS7003;61807;48.384;-4.386;2023-02-15T07:19:09;37.50;30.75;18.50
73546;PMS7003;61807;48.384;-4.386;2023-02-15T07:21:35;26.75;25.25;16.50
73546;PMS7003;61807;48.384;-4.386;2023-02-15T07:24:01;32.50;27.00;15.25
73546;PMS7003;61807;48.384;-4.386;2023-02-15T07:26:26;35.75;31.25;16.25
73546;PMS7003;61807;48.384;-4.386;2023-02-15T07:28:52;35.50;29.25;18.25
73546;PMS7003;61807;48.384;-4.386;2023-02-15T07:31:17;34.50;29.25;19.50
73546;PMS7003;61807;48.384;-4.386;2023-02-15T07:33:43;45.00;36.00;20.25
73546;PMS7003;61807;48.384;-4.386;2023-02-15T07:36:08;44.25;32.75;19.25
73546;PMS7003;61807;48.384;-4.386;2023-02-15T07:38:38;37.25;31.50;19.50
73546;PMS7003;61807;48.384;-4.386;2023-02-15T07:41:06;33.00;31.50;18.50
73546;PMS7003;61807;48.384;-4.386;2023-02-15T07:43:33;36.50;32.50;19.25
73546;PMS7003;61807;48.384;-4.386;2023-02-15T07:46:01;37.75;31.50;19.00
73546;PMS7003;61807;48.384;-4.386;2023-02-15T07:48:27;33.25;26.50;18.25
73546;PMS7003;61807;48.384;-4.386;2023-02-15T07:50:53;36.25;32.00;21.00
73546;PMS7003;61807;48.384;-4.386;2023-02-15T07:53:18;41.25;31.00;21.00
73546;PMS7003;61807;48.384;-4.386;2023-02-15T07:55:44;32.75;31.00;19.25
73546;PMS7003;61807;48.384;-4.386;2023-02-15T07:58:09;37.50;31.00;19.50
73546;PMS7003;61807;48.384;-4.386;2023-02-15T08:00:35;34.50;29.00;18.75
73546;PMS7003;61807;48.384;-4.386;2023-02-15T08:03:22;43.00;33.00;18.00
73546;PMS7003;61807;48.384;-4.386;2023-02-15T08:05:57;37.00;29.00;18.50
73546;PMS7003;61807;48.384;-4.386;2023-02-15T08:08:30;40.00;31.50;19.25
73546;PMS7003;61807;48.384;-4.386;2023-02-15T08:13:48;36.50;32.75;19.75
73546;PMS7003;61807;48.384;-4.386;2023-02-15T08:19:10;42.00;31.00;19.75
73546;PMS7003;61807;48.384;-4.386;2023-02-15T08:21:38;39.25;30.75;16.50
73546;PMS7003;61807;48.384;-4.386;2023-02-15T08:24:05;34.00;27.25;16.25
73546;PMS7003;61807;48.384;-4.386;2023-02-15T08:26:32;29.50;29.00;19.00
73546;PMS7003;61807;48.384;-4.386;2023-02-15T08:28:58;33.50;31.00;19.25
73546;PMS7003;61807;48.384;-4.386;2023-02-15T08:31:24;32.50;24.50;16.75
73546;PMS7003;61807;48.384;-4.386;2023-02-15T08:33:50;40.25;31.50;18.25
73546;PMS7003;61807;48.384;-4.386;2023-02-15T08:36:18;33.00;29.00;18.25
73546;PMS7003;61807;48.384;-4.386;2023-02-15T08:38:45;31.50;28.25;17.00
73546;PMS7003;61807;48.384;-4.386;2023-02-15T08:41:18;35.75;30.50;18.75
73546;PMS7003;61807;48.384;-4.386;2023-02-15T08:43:47;35.25;28.25;17.25
73546;PMS7003;61807;48.384;-4.386;2023-02-15T08:46:14;34.25;29.75;16.00
73546;PMS7003;61807;48.384;-4.386;2023-02-15T08:48:41;33.25;30.50;17.00
73546;PMS7003;61807;48.384;-4.386;2023-02-15T08:51:16;38.50;32.00;20.25
73546;PMS7003;61807;48.384;-4.386;2023-02-15T08:53:43;37.25;35.00;18.75
73546;PMS7003;61807;48.384;-4.386;2023-02-15T08:56:10;41.50;32.00;18.00
73546;PMS7003;61807;48.384;-4.386;2023-02-15T08:58:36;32.50;28.50;18.50
73546;PMS7003;61807;48.384;-4.386;2023-02-15T09:01:08;28.25;25.75;17.25
73546;PMS7003;61807;48.384;-4.386;2023-02-15T09:03:57;33.50;27.00;16.50
73546;PMS7003;61807;48.384;-4.386;2023-02-15T09:06:24;30.75;25.00;16.00
73546;PMS7003;61807;48.384;-4.386;2023-02-15T09:08:50;28.75;24.00;17.75
73546;PMS7003;61807;48.384;-4.386;2023-02-15T09:11:17;31.00;29.25;17.25
73546;PMS7003;61807;48.384;-4.386;2023-02-15T09:14:00;32.25;27.25;17.50
73546;PMS7003;61807;48.384;-4.386;2023-02-15T09:16:29;31.50;25.00;15.00
73546;PMS7003;61807;48.384;-4.386;2023-02-15T09:18:55;29.25;28.25;16.50
73546;PMS7003;61807;48.384;-4.386;2023-02-15T09:21:24;26.75;23.75;15.25
73546;PMS7003;61807;48.384;-4.386;2023-02-15T09:23:51;30.25;25.25;15.00
73546;PMS7003;61807;48.384;-4.386;2023-02-15T09:26:20;26.75;23.50;15.00
73546;PMS7003;61807;48.384;-4.386;2023-02-15T09:28:47;29.25;25.75;17.25
73546;PMS7003;61807;48.384;-4.386;2023-02-15T09:31:17;27.50;24.25;16.75
73546;PMS7003;61807;48.384;-4.386;2023-02-15T09:33:45;33.75;30.25;16.00
73546;PMS7003;61807;48.384;-4.386;2023-02-15T09:36:15;35.50;28.00;19.25
73546;PMS7003;61807;48.384;-4.386;2023-02-15T09:38:46;29.00;24.75;16.00
73546;PMS7003;61807;48.384;-4.386;2023-02-15T09:49:15;34.50;28.00;17.00
73546;PMS7003;61807;48.384;-4.386;2023-02-15T09:52:12;31.75;30.25;16.50
73546;PMS7003;61807;48.384;-4.386;2023-02-15T10:15:38;29.50;27.75;16.50
73546;PMS7003;61807;48.384;-4.386;2023-02-15T10:21:06;29.00;28.00;16.25
73546;PMS7003;61807;48.384;-4.386;2023-02-15T10:31:59;29.00;23.75;16.00
73546;PMS7003;61807;48.384;-4.386;2023-02-15T10:34:45;34.00;28.25;16.75
73546;PMS7003;61807;48.384;-4.386;2023-02-15T10:50:53;28.75;25.50;16.75
73546;PMS7003;61807;48.384;-4.386;2023-02-15T11:06:49;25.00;24.00;16.25
73546;PMS7003;61807;48.384;-4.386;2023-02-15T11:09:21;34.00;30.75;19.00
73546;PMS7003;61807;48.384;-4.386;2023-02-15T11:11:50;28.00;24.75;16.75
73546;PMS7003;61807;48.384;-4.386;2023-02-15T11:14:32;48.00;36.00;22.25
73546;PMS7003;61807;48.384;-4.386;2023-02-15T11:17:09;26.75;24.25;14.75
73546;PMS7003;61807;48.384;-4.386;2023-02-15T11:19:46;26.25;25.25;16.25
73546;PMS7003;61807;48.384;-4.386;2023-02-15T11:22:21;27.25;21.00;13.00
73546;PMS7003;61807;48.384;-4.386;2023-02-15T11:24:47;25.50;21.75;15.75
73546;PMS7003;61807;48.384;-4.386;2023-02-15T11:27:23;29.00;24.50;15.00
73546;PMS7003;61807;48.384;-4.386;2023-02-15T11:32:44;25.75;23.00;15.00
73546;PMS7003;61807;48.384;-4.386;2023-02-15T11:40:48;24.25;21.50;13.75
73546;PMS7003;61807;48.384;-4.386;2023-02-15T11:46:14;21.75;17.50;11.75
73546;PMS7003;61807;48.384;-4.386;2023-02-15T11:48:40;22.25;16.00;10.50
73546;PMS7003;61807;48.384;-4.386;2023-02-15T11:51:08;22.25;18.50;13.25
73546;PMS7003;61807;48.384;-4.386;2023-02-15T11:53:38;20.50;15.50;10.25
73546;PMS7003;61807;48.384;-4.386;2023-02-15T11:56:04;14.75;13.75;10.25
73546;PMS7003;61807;48.384;-4.386;2023-02-15T12:03:47;19.75;16.50;10.00
73546;PMS7003;61807;48.384;-4.386;2023-02-15T12:06:20;21.00;17.75;12.00
73546;PMS7003;61807;48.384;-4.386;2023-02-15T12:08:51;22.50;18.00;10.50
73546;PMS7003;61807;48.384;-4.386;2023-02-15T12:11:27;21.75;13.50;9.75
73546;PMS7003;61807;48.384;-4.386;2023-02-15T12:16:28;16.25;13.75;10.50
73546;PMS7003;61807;48.384;-4.386;2023-02-15T12:18:57;57.25;37.75;18.00
73546;PMS7003;61807;48.384;-4.386;2023-02-15T12:24:00;27.75;18.75;11.00
73546;PMS7003;61807;48.384;-4.386;2023-02-15T12:26:40;18.50;13.75;10.00
73546;PMS7003;61807;48.384;-4.386;2023-02-15T12:29:15;16.50;15.00;9.50
73546;PMS7003;61807;48.384;-4.386;2023-02-15T12:31:45;16.75;15.25;9.75
73546;PMS7003;61807;48.384;-4.386;2023-02-15T12:34:30;17.25;14.75;10.25
73546;PMS7003;61807;48.384;-4.386;2023-02-15T12:37:02;15.75;13.75;10.25
73546;PMS7003;61807;48.384;-4.386;2023-02-15T12:39:39;18.50;16.00;9.75
73546;PMS7003;61807;48.384;-4.386;2023-02-15T12:42:17;19.25;14.50;9.75
73546;PMS7003;61807;48.384;-4.386;2023-02-15T12:44:58;14.50;13.25;9.25
73546;PMS7003;61807;48.384;-4.386;2023-02-15T12:47:29;18.75;16.25;11.25
73546;PMS7003;61807;48.384;-4.386;2023-02-15T12:52:44;20.25;14.00;9.75
73546;PMS7003;61807;48.384;-4.386;2023-02-15T12:55:25;21.25;17.50;11.50
73546;PMS7003;61807;48.384;-4.386;2023-02-15T13:00:38;15.00;14.50;10.25
73546;PMS7003;61807;48.384;-4.386;2023-02-15T13:03:04;18.25;15.25;10.00
73546;PMS7003;61807;48.384;-4.386;2023-02-15T13:05:37;20.50;17.75;9.75
73546;PMS7003;61807;48.384;-4.386;2023-02-15T13:08:21;20.00;14.25;9.75
73546;PMS7003;61807;48.384;-4.386;2023-02-15T13:10:52;14.50;12.50;9.75
73546;PMS7003;61807;48.384;-4.386;2023-02-15T13:13:21;22.00;16.00;10.75
73546;PMS7003;61807;48.384;-4.386;2023-02-15T13:15:53;11.75;11.00;8.25
73546;PMS7003;61807;48.384;-4.386;2023-02-15T13:18:29;16.25;12.50;8.50
73546;PMS7003;61807;48.384;-4.386;2023-02-15T13:21:04;15.25;14.00;10.00
73546;PMS7003;61807;48.384;-4.386;2023-02-15T13:23:36;10.50;10.50;6.25
73546;PMS7003;61807;48.384;-4.386;2023-02-15T13:26:04;11.00;10.25;6.75
73546;PMS7003;61807;48.384;-4.386;2023-02-15T13:28:45;18.00;12.50;8.25
73546;PMS7003;61807;48.384;-4.386;2023-02-15T13:31:14;10.25;9.50;7.50
73546;PMS7003;61807;48.384;-4.386;2023-02-15T13:33:46;9.75;9.75;7.75
73546;PMS7003;61807;48.384;-4.386;2023-02-15T13:36:30;15.00;10.25;7.50
73546;PMS7003;61807;48.384;-4.386;2023-02-15T13:42:25;14.25;8.50;5.75
73546;PMS7003;61807;48.384;-4.386;2023-02-15T13:50:43;34.75;25.75;12.75
73546;PMS7003;61807;48.384;-4.386;2023-02-15T13:53:51;8.50;8.50;5.75
73546;PMS7003;61807;48.384;-4.386;2023-02-15T14:01:58;7.25;7.25;5.25
73546;PMS7003;61807;48.384;-4.386;2023-02-15T14:15:48;10.50;9.75;7.50
73546;PMS7003;61807;48.384;-4.386;2023-02-15T14:20:53;10.00;8.50;5.25
73546;PMS7003;61807;48.384;-4.386;2023-02-15T14:34:58;14.25;11.50;8.00
73546;PMS7003;61807;48.384;-4.386;2023-02-15T14:40:17;21.00;15.50;11.25
73546;PMS7003;61807;48.384;-4.386;2023-02-15T14:43:14;15.75;13.00;10.00
73546;PMS7003;61807;48.384;-4.386;2023-02-15T14:45:58;16.25;14.00;10.00
73546;PMS7003;61807;48.384;-4.386;2023-02-15T14:48:33;14.75;11.00;8.00
73546;PMS7003;61807;48.384;-4.386;2023-02-15T14:51:10;15.00;13.50;8.25
73546;PMS7003;61807;48.384;-4.386;2023-02-15T14:54:06;12.75;11.50;8.50
73546;PMS7003;61807;48.384;-4.386;2023-02-15T14:56:32;12.50;12.00;8.50
73546;PMS7003;61807;48.384;-4.386;2023-02-15T14:58:59;14.25;11.75;8.50
73546;PMS7003;61807;48.384;-4.386;2023-02-15T15:01:37;20.25;11.50;9.00
73546;PMS7003;61807;48.384;-4.386;2023-02-15T15:04:05;13.50;12.00;8.50
73546;PMS7003;61807;48.384;-4.386;2023-02-15T15:06:34;14.25;11.50;9.00
73546;PMS7003;61807;48.384;-4.386;2023-02-15T15:09:12;11.75;11.25;8.25
73546;PMS7003;61807;48.384;-4.386;2023-02-15T15:11:51;12.75;11.50;7.50
73546;PMS7003;61807;48.384;-4.386;2023-02-15T15:22:26;15.25;13.25;9.00
73546;PMS7003;61807;48.384;-4.386;2023-02-15T15:32:38;15.50;14.00;10.00
73546;PMS7003;61807;48.384;-4.386;2023-02-15T15:49:24;14.25;11.50;7.75
73546;PMS7003;61807;48.384;-4.386;2023-02-15T15:51:55;15.50;13.75;10.75
73546;PMS7003;61807;48.384;-4.386;2023-02-15T15:54:25;23.50;14.75;9.75
73546;PMS7003;61807;48.384;-4.386;2023-02-15T15:57:02;16.00;11.75;8.25
73546;PMS7003;61807;48.384;-4.386;2023-02-15T15:59:32;17.50;12.25;9.50
73546;PMS7003;61807;48.384;-4.386;2023-02-15T16:02:11;15.75;14.50;10.75
73546;PMS7003;61807;48.384;-4.386;2023-02-15T16:04:41;19.50;17.00;12.75
73546;PMS7003;61807;48.384;-4.386;2023-02-15T16:10:44;20.00;18.00;12.00
73546;PMS7003;61807;48.384;-4.386;2023-02-15T16:12:49;19.75;18.00;13.25
73546;PMS7003;61807;48.384;-4.386;2023-02-15T16:15:24;25.50;20.00;13.25
73546;PMS7003;61807;48.384;-4.386;2023-02-15T16:17:53;24.00;20.75;12.75
73546;PMS7003;61807;48.384;-4.386;2023-02-15T16:20:25;18.25;17.00;12.50
73546;PMS7003;61807;48.384;-4.386;2023-02-15T16:22:58;26.50;22.50;15.25
73546;PMS7003;61807;48.384;-4.386;2023-02-15T16:25:47;25.50;21.00;14.25
73546;PMS7003;61807;48.384;-4.386;2023-02-15T16:28:32;26.00;19.50;13.50
73546;PMS7003;61807;48.384;-4.386;2023-02-15T16:31:10;16.75;16.75;11.00
73546;PMS7003;61807;48.384;-4.386;2023-02-15T16:33:38;24.50;20.50;13.25
73546;PMS7003;61807;48.384;-4.386;2023-02-15T16:36:05;17.25;14.00;10.25
73546;PMS7003;61807;48.384;-4.386;2023-02-15T16:41:07;21.00;17.50;11.25
73546;PMS7003;61807;48.384;-4.386;2023-02-15T16:43:36;21.50;16.00;11.00
73546;PMS7003;61807;48.384;-4.386;2023-02-15T16:46:04;28.00;19.00;11.00
73546;PMS7003;61807;48.384;-4.386;2023-02-15T16:48:32;17.50;16.00;10.75
73546;PMS7003;61807;48.384;-4.386;2023-02-15T16:51:03;20.25;15.50;10.00
73546;PMS7003;61807;48.384;-4.386;2023-02-15T16:53:29;18.00;15.75;11.25
73546;PMS7003;61807;48.384;-4.386;2023-02-15T16:55:56;16.50;16.00;11.00
73546;PMS7003;61807;48.384;-4.386;2023-02-15T16:58:43;17.50;15.25;10.00
73546;PMS7003;61807;48.384;-4.386;2023-02-15T17:01:11;17.75;15.00;10.75
73546;PMS7003;61807;48.384;-4.386;2023-02-15T17:03:40;15.25;14.75;10.00
73546;PMS7003;61807;48.384;-4.386;2023-02-15T17:06:18;21.00;18.75;14.00
73546;PMS7003;61807;48.384;-4.386;2023-02-15T17:08:48;23.00;20.75;12.00
73546;PMS7003;61807;48.384;-4.386;2023-02-15T17:11:21;23.00;19.75;12.00
73546;PMS7003;61807;48.384;-4.386;2023-02-15T17:16:51;18.50;16.25;11.00
73546;PMS7003;61807;48.384;-4.386;2023-02-15T17:19:23;20.00;18.75;12.00
73546;PMS7003;61807;48.384;-4.386;2023-02-15T17:22:04;22.25;18.50;12.75
73546;PMS7003;61807;48.384;-4.386;2023-02-15T17:24:35;21.25;17.75;12.75
73546;PMS7003;61807;48.384;-4.386;2023-02-15T17:27:02;19.25;17.50;12.00
73546;PMS7003;61807;48.384;-4.386;2023-02-15T17:29:33;12.75;12.75;9.25
73546;PMS7003;61807;48.384;-4.386;2023-02-15T17:32:01;15.75;14.00;10.00
73546;PMS7003;61807;48.384;-4.386;2023-02-15T17:40:28;17.25;15.25;10.50